createdAt,value
2022-08-30T00:01:57.294Z,63.85
2022-08-30T00:04:23.662Z,63.92
2022-08-30T00:06:50.060Z,63.82
2022-08-30T00:09:16.493Z,63.89
2022-08-30T00:11:42.853Z,64.01
2022-08-30T00:14:09.256Z,64.24
2022-08-30T00:16:35.674Z,64.28
2022-08-30T00:19:02.159Z,64.18
2022-08-30T00:21:28.490Z,64.20
2022-08-30T00:23:54.885Z,64.09
2022-08-30T00:26:21.250Z,64.30
2022-08-30T00:28:47.668Z,64.43
2022-08-30T00:31:15.538Z,64.58
2022-08-30T00:33:40.463Z,64.86
2022-08-30T00:36:06.949Z,64.98
2022-08-30T00:38:33.310Z,64.78
2022-08-30T00:40:59.747Z,64.90
2022-08-30T00:43:27.919Z,64.95
2022-08-30T00:45:52.575Z,65.07
2022-08-30T00:48:18.849Z,65.42
2022-08-30T00:50:45.246Z,65.62
2022-08-30T00:53:11.666Z,65.86
2022-08-30T00:55:38.830Z,65.98
2022-08-30T00:58:05.149Z,66.04
2022-08-30T01:00:30.831Z,66.14
2022-08-30T01:02:57.210Z,66.21
2022-08-30T01:05:23.637Z,65.91
2022-08-30T01:10:16.172Z,66.15
2022-08-30T01:12:42.554Z,66.26
2022-08-30T01:15:08.913Z,66.42
2022-08-30T01:17:35.279Z,66.18
2022-08-30T01:20:01.721Z,66.44
2022-08-30T01:22:28.158Z,66.49
2022-08-30T01:24:54.522Z,66.33
2022-08-30T01:27:20.883Z,65.85
2022-08-30T01:29:47.351Z,65.57
2022-08-30T01:32:13.714Z,65.49
2022-08-30T01:34:40.107Z,65.27
2022-08-30T01:37:06.498Z,65.31
2022-08-30T01:39:32.984Z,65.14
2022-08-30T01:41:59.348Z,65.08
2022-08-30T01:44:25.717Z,65.15
2022-08-30T01:46:52.178Z,65.25
2022-08-30T01:49:27.366Z,65.46
2022-08-30T01:51:44.991Z,65.44
2022-08-30T01:54:11.374Z,65.36
2022-08-30T01:56:37.810Z,65.32
2022-08-30T01:59:04.239Z,65.42
2022-08-30T02:01:30.968Z,65.49
2022-08-30T02:03:57.092Z,65.72
2022-08-30T02:06:23.399Z,65.89
2022-08-30T02:08:49.872Z,65.92
2022-08-30T02:11:16.250Z,65.93
2022-08-30T02:13:42.615Z,66.05
2022-08-30T02:16:09.009Z,66.25
2022-08-30T02:18:35.396Z,66.41
2022-08-30T02:21:01.765Z,66.51
2022-08-30T02:23:28.266Z,66.43
2022-08-30T02:25:54.629Z,66.68
2022-08-30T02:28:21.029Z,66.87
2022-08-30T02:30:47.483Z,66.86
2022-08-30T02:33:13.848Z,66.97
2022-08-30T02:35:40.187Z,67.03
2022-08-30T02:38:06.651Z,67.21
2022-08-30T02:40:33.091Z,67.38
2022-08-30T02:42:59.377Z,67.44
2022-08-30T02:45:25.784Z,67.62
2022-08-30T02:47:52.180Z,67.79
2022-08-30T02:50:18.560Z,67.86
2022-08-30T02:52:45.293Z,68.12
2022-08-30T02:55:11.330Z,68.18
2022-08-30T02:57:37.704Z,68.29
2022-08-30T03:00:04.067Z,68.32
2022-08-30T03:02:30.477Z,68.32
2022-08-30T03:04:56.845Z,68.12
2022-08-30T03:07:23.207Z,68.18
2022-08-30T03:09:49.575Z,68.24
2022-08-30T03:12:16.048Z,68.21
2022-08-30T03:14:42.426Z,68.20
2022-08-30T03:17:12.787Z,68.24
2022-08-30T03:19:35.156Z,68.36
2022-08-30T03:22:01.632Z,68.24
2022-08-30T03:24:28.042Z,68.42
2022-08-30T03:26:54.409Z,68.69
2022-08-30T03:29:20.830Z,69.01
2022-08-30T03:31:53.098Z,69.13
2022-08-30T03:34:13.565Z,69.07
2022-08-30T03:36:39.932Z,69.10
2022-08-30T03:39:06.356Z,69.11
2022-08-30T03:41:32.789Z,69.28
2022-08-30T03:44:00.205Z,69.39
2022-08-30T03:46:26.931Z,69.35
2022-08-30T03:48:52.091Z,69.89
2022-08-30T03:51:18.454Z,70.21
2022-08-30T03:53:44.872Z,70.39
2022-08-30T03:56:11.237Z,70.18
2022-08-30T03:58:37.598Z,70.40
2022-08-30T04:01:04.104Z,70.50
2022-08-30T04:03:30.437Z,70.20
2022-08-30T04:05:56.924Z,70.65
2022-08-30T04:08:23.305Z,71.20
2022-08-30T04:10:49.688Z,71.42
2022-08-30T04:13:16.285Z,71.25
2022-08-30T04:15:42.541Z,71.15
2022-08-30T04:18:08.980Z,71.14
2022-08-30T04:20:35.364Z,71.17
2022-08-30T04:23:01.742Z,70.91
2022-08-30T04:25:28.283Z,70.38
2022-08-30T04:27:54.679Z,70.39
2022-08-30T04:30:21.136Z,70.04
2022-08-30T04:32:47.576Z,69.87
2022-08-30T04:35:14.003Z,70.02
2022-08-30T04:37:40.408Z,70.01
2022-08-30T04:40:06.823Z,70.04
2022-08-30T04:42:33.211Z,70.20
2022-08-30T04:44:59.581Z,70.38
2022-08-30T04:47:25.946Z,70.73
2022-08-30T04:49:52.335Z,70.80
2022-08-30T04:52:18.707Z,71.12
2022-08-30T04:54:45.077Z,72.01
2022-08-30T04:57:11.444Z,71.79
2022-08-30T04:59:37.934Z,71.75
2022-08-30T05:02:04.334Z,71.40
2022-08-30T05:04:30.699Z,70.82
2022-08-30T05:06:57.103Z,70.47
2022-08-30T05:09:23.553Z,70.40
2022-08-30T05:11:49.996Z,70.50
2022-08-30T05:14:16.421Z,70.57
2022-08-30T05:16:42.838Z,70.55
2022-08-30T05:19:09.198Z,70.53
2022-08-30T05:21:35.610Z,70.53
2022-08-30T05:24:01.967Z,70.52
2022-08-30T05:26:28.358Z,70.64
2022-08-30T05:28:54.821Z,70.66
2022-08-30T05:31:21.332Z,70.83
2022-08-30T05:33:47.653Z,70.91
2022-08-30T05:36:14.048Z,70.78
2022-08-30T05:38:40.439Z,70.82
2022-08-30T05:41:10.952Z,70.90
2022-08-30T05:43:33.249Z,70.81
2022-08-30T05:45:59.753Z,70.89
2022-08-30T05:48:26.184Z,70.82
2022-08-30T05:50:52.575Z,70.90
2022-08-30T05:53:18.986Z,70.90
2022-08-30T05:55:45.346Z,70.98
2022-08-30T05:58:11.827Z,70.98
2022-08-30T06:00:38.211Z,70.95
2022-08-30T06:03:04.782Z,70.69
2022-08-30T06:05:31.133Z,70.43
2022-08-30T06:07:57.644Z,69.82
2022-08-30T06:10:24.019Z,69.40
2022-08-30T06:12:50.393Z,68.62
2022-08-30T06:15:16.787Z,67.49
2022-08-30T06:17:43.275Z,66.79
2022-08-30T06:20:09.647Z,65.91
2022-08-30T06:22:36.084Z,65.19
2022-08-30T06:25:02.474Z,64.68
2022-08-30T06:27:28.907Z,64.12
2022-08-30T06:29:55.282Z,63.07
2022-08-30T06:32:21.673Z,61.99
2022-08-30T06:34:48.051Z,61.69
2022-08-30T06:37:29.527Z,61.54
2022-08-30T06:39:40.788Z,61.35
2022-08-30T06:42:07.165Z,59.62
2022-08-30T06:44:33.537Z,60.59
2022-08-30T06:46:59.927Z,60.87
2022-08-30T06:49:26.292Z,61.15
2022-08-30T06:51:52.727Z,61.06
2022-08-30T06:54:19.105Z,61.01
2022-08-30T06:57:00.376Z,61.37
2022-08-30T06:59:11.956Z,61.81
2022-08-30T07:01:38.388Z,61.36
2022-08-30T07:04:04.727Z,61.56
2022-08-30T07:06:31.097Z,61.53
2022-08-30T07:08:57.597Z,61.91
2022-08-30T07:11:26.740Z,62.24
2022-08-30T07:13:50.790Z,62.14
2022-08-30T07:16:17.196Z,61.99
2022-08-30T07:18:43.594Z,61.09
2022-08-30T07:21:10.036Z,61.27
2022-08-30T07:23:36.455Z,60.93
2022-08-30T07:26:02.892Z,60.76
2022-08-30T07:28:29.324Z,60.52
2022-08-30T07:30:55.793Z,60.83
2022-08-30T07:33:22.304Z,60.44
2022-08-30T07:35:48.833Z,59.99
2022-08-30T07:38:15.220Z,59.05
2022-08-30T07:40:41.731Z,58.27
2022-08-30T07:43:08.083Z,57.23
2022-08-30T07:45:35.397Z,55.91
2022-08-30T07:48:00.830Z,55.08
2022-08-30T07:50:27.323Z,54.08
2022-08-30T07:52:53.704Z,53.96
2022-08-30T07:55:20.089Z,54.35
2022-08-30T07:57:46.520Z,54.66
2022-08-30T08:00:12.933Z,55.32
2022-08-30T08:02:39.528Z,55.79
2022-08-30T08:05:05.880Z,56.03
2022-08-30T08:07:32.356Z,56.65
2022-08-30T08:09:58.713Z,57.35
2022-08-30T08:12:25.198Z,57.51
2022-08-30T08:14:51.663Z,57.28
2022-08-30T08:17:18.019Z,58.08
2022-08-30T08:19:44.397Z,57.92
2022-08-30T08:22:25.999Z,58.11
2022-08-30T08:24:37.188Z,58.48
2022-08-30T08:27:03.555Z,58.75
2022-08-30T08:29:29.938Z,58.23
2022-08-30T08:31:56.351Z,58.71
2022-08-30T08:34:22.721Z,59.30
2022-08-30T08:36:49.096Z,59.84
2022-08-30T08:39:15.467Z,59.89
2022-08-30T08:41:41.869Z,60.53
2022-08-30T08:44:08.247Z,60.94
2022-08-30T08:46:34.681Z,60.64
2022-08-30T08:49:01.020Z,60.17
2022-08-30T08:51:27.413Z,60.19
2022-08-30T08:53:53.869Z,60.42
2022-08-30T08:56:20.298Z,60.57
2022-08-30T08:58:46.666Z,60.80
2022-08-30T09:01:13.128Z,61.22
2022-08-30T09:03:39.497Z,61.25
2022-08-30T09:06:05.926Z,61.31
2022-08-30T09:08:32.305Z,61.37
2022-08-30T09:10:58.671Z,61.52
2022-08-30T09:13:25.057Z,61.12
2022-08-30T09:15:55.071Z,61.19
2022-08-30T09:18:19.221Z,61.07
2022-08-30T09:20:44.164Z,61.00
2022-08-30T09:23:10.545Z,60.62
2022-08-30T09:25:41.654Z,60.52
2022-08-30T09:28:03.418Z,60.38
2022-08-30T09:30:29.811Z,59.98
2022-08-30T09:32:56.208Z,59.52
2022-08-30T09:35:22.584Z,59.17
2022-08-30T09:37:48.951Z,59.35
2022-08-30T09:40:15.453Z,58.95
2022-08-30T09:42:41.742Z,58.91
2022-08-30T09:45:08.122Z,58.70
2022-08-30T09:47:34.494Z,58.26
2022-08-30T09:50:00.855Z,58.08
2022-08-30T09:52:27.337Z,57.79
2022-08-30T09:54:53.768Z,57.47
2022-08-30T09:57:20.139Z,57.01
2022-08-30T09:59:46.644Z,56.31
2022-08-30T10:02:13.004Z,56.21
2022-08-30T10:04:39.319Z,56.44
2022-08-30T10:07:05.690Z,56.06
2022-08-30T10:09:32.072Z,55.62
2022-08-30T10:11:58.446Z,54.79
2022-08-30T10:14:24.873Z,54.36
2022-08-30T10:16:51.363Z,54.07
2022-08-30T10:19:17.802Z,53.59
2022-08-30T10:21:44.252Z,53.27
2022-08-30T10:24:10.600Z,53.40
2022-08-30T10:26:37.003Z,52.83
2022-08-30T10:29:03.388Z,52.79
2022-08-30T10:31:29.790Z,52.56
2022-08-30T10:33:56.175Z,52.61
2022-08-30T10:36:22.541Z,51.71
2022-08-30T10:38:48.940Z,51.07
2022-08-30T10:41:15.385Z,50.05
2022-08-30T10:43:41.747Z,49.83
2022-08-30T10:46:08.136Z,48.91
2022-08-30T10:48:34.573Z,48.82
2022-08-30T10:51:00.945Z,48.61
2022-08-30T10:53:27.346Z,48.18
2022-08-30T10:55:53.730Z,47.40
2022-08-30T10:58:20.113Z,47.00
2022-08-30T11:00:46.521Z,46.96
2022-08-30T11:03:12.968Z,47.07
2022-08-30T11:05:41.772Z,47.14
2022-08-30T11:08:05.637Z,46.95
2022-08-30T11:10:32.018Z,47.37
2022-08-30T11:12:58.397Z,46.85
2022-08-30T11:15:24.830Z,47.14
2022-08-30T11:17:51.202Z,46.96
2022-08-30T11:20:17.587Z,47.05
2022-08-30T11:22:43.985Z,46.65
2022-08-30T11:25:10.603Z,46.32
2022-08-30T11:27:36.831Z,45.98
2022-08-30T11:30:03.332Z,46.04
2022-08-30T11:32:29.773Z,45.81
2022-08-30T11:34:56.127Z,45.80
2022-08-30T11:37:24.930Z,45.95
2022-08-30T11:39:51.316Z,46.09
2022-08-30T11:42:17.744Z,46.14
2022-08-30T11:44:44.155Z,46.31
2022-08-30T11:47:10.539Z,46.13
2022-08-30T11:49:36.920Z,46.22
2022-08-30T11:54:29.758Z,46.03
2022-08-30T11:56:56.436Z,46.05
2022-08-30T11:59:22.513Z,46.33
2022-08-30T12:01:55.051Z,46.35
2022-08-30T12:04:15.589Z,46.17
2022-08-30T12:06:41.814Z,45.94
2022-08-30T12:09:08.555Z,45.69
2022-08-30T12:11:34.577Z,45.49
2022-08-30T12:14:01.067Z,45.70
2022-08-30T12:16:27.467Z,46.06
2022-08-30T12:18:53.835Z,46.00
2022-08-30T12:21:20.262Z,45.94
2022-08-30T12:23:46.648Z,45.74
2022-08-30T12:26:13.134Z,45.70
2022-08-30T12:28:42.171Z,45.43
2022-08-30T12:31:05.863Z,45.58
2022-08-30T12:33:36.613Z,45.18
2022-08-30T12:35:58.617Z,45.04
2022-08-30T12:38:27.566Z,44.93
2022-08-30T12:40:51.421Z,44.89
2022-08-30T12:43:17.853Z,44.79
2022-08-30T12:45:44.319Z,44.71
2022-08-30T12:48:10.681Z,44.82
2022-08-30T12:50:37.024Z,44.83
2022-08-30T12:53:03.426Z,44.77
2022-08-30T12:55:29.810Z,44.66
2022-08-30T12:58:00.677Z,44.68
2022-08-30T13:00:22.598Z,44.49
2022-08-30T13:02:48.966Z,44.57
2022-08-30T13:05:15.335Z,44.23
2022-08-30T13:07:41.728Z,44.05
2022-08-30T13:10:08.122Z,43.80
2022-08-30T13:12:34.503Z,44.07
2022-08-30T13:15:00.892Z,43.85
2022-08-30T13:17:27.285Z,43.89
2022-08-30T13:19:53.680Z,44.04
2022-08-30T13:22:20.333Z,44.29
2022-08-30T13:24:46.561Z,44.23
2022-08-30T13:27:12.951Z,43.96
2022-08-30T13:29:39.344Z,44.68
2022-08-30T13:32:05.731Z,45.12
2022-08-30T13:34:32.102Z,44.84
2022-08-30T13:36:58.522Z,45.46
2022-08-30T13:39:24.886Z,45.27
2022-08-30T13:41:51.594Z,45.09
2022-08-30T13:44:17.758Z,45.69
2022-08-30T13:46:44.838Z,46.33
2022-08-30T13:49:43.084Z,46.66
2022-08-30T13:51:36.915Z,46.26
2022-08-30T13:54:03.281Z,46.23
2022-08-30T13:56:29.805Z,46.56
2022-08-30T13:58:56.091Z,46.34
2022-08-30T14:01:22.546Z,46.34
2022-08-30T14:06:32.239Z,46.12
2022-08-30T14:08:46.396Z,46.09
2022-08-30T14:11:08.115Z,46.67
2022-08-30T14:13:34.511Z,46.36
2022-08-30T14:18:27.347Z,46.75
2022-08-30T14:20:53.738Z,46.66
2022-08-30T14:23:20.117Z,46.60
2022-08-30T14:25:46.546Z,46.73
2022-08-30T14:28:12.972Z,46.78
2022-08-30T14:30:39.288Z,46.85
2022-08-30T14:33:05.681Z,47.13
2022-08-30T14:35:32.064Z,46.92
2022-08-30T14:37:58.430Z,46.83
2022-08-30T14:40:24.943Z,46.54
2022-08-30T14:42:51.333Z,47.18
2022-08-30T14:45:17.696Z,47.47
2022-08-30T14:47:44.288Z,47.45
2022-08-30T14:50:10.650Z,47.49
2022-08-30T14:52:37.068Z,48.02
2022-08-30T14:55:08.965Z,47.75
2022-08-30T14:57:29.833Z,47.72
2022-08-30T14:59:56.272Z,47.86
2022-08-30T15:02:26.560Z,47.92
2022-08-30T15:04:49.523Z,47.86
2022-08-30T15:07:15.572Z,47.84
2022-08-30T15:09:41.965Z,47.96
2022-08-30T15:12:08.422Z,47.93
2022-08-30T15:14:34.861Z,48.10
2022-08-30T15:17:01.263Z,47.89
2022-08-30T15:19:27.644Z,47.96
2022-08-30T15:21:54.023Z,47.98
2022-08-30T15:24:20.382Z,48.21
2022-08-30T15:26:46.749Z,48.52
2022-08-30T15:29:13.146Z,48.63
2022-08-30T15:31:39.683Z,48.77
2022-08-30T15:34:05.949Z,48.72
2022-08-30T15:36:32.317Z,49.20
2022-08-30T15:38:58.686Z,48.85
2022-08-30T15:41:25.565Z,49.30
2022-08-30T15:43:51.958Z,49.25
2022-08-30T15:46:18.365Z,49.50
2022-08-30T15:48:45.689Z,49.46
2022-08-30T15:51:11.357Z,49.99
2022-08-30T15:53:37.728Z,50.05
2022-08-30T15:56:04.092Z,50.14
2022-08-30T15:58:30.477Z,50.10
2022-08-30T16:00:56.941Z,50.15
2022-08-30T16:03:23.240Z,50.12
2022-08-30T16:05:49.632Z,49.98
2022-08-30T16:08:16.050Z,50.17
2022-08-30T16:10:43.320Z,49.79
2022-08-30T16:13:08.761Z,49.53
2022-08-30T16:15:35.273Z,49.46
2022-08-30T16:18:01.658Z,49.99
2022-08-30T16:20:28.026Z,49.98
2022-08-30T16:22:54.419Z,50.05
2022-08-30T16:25:20.806Z,49.81
2022-08-30T16:27:47.189Z,49.88
2022-08-30T16:30:13.558Z,49.84
2022-08-30T16:32:40.000Z,49.64
2022-08-30T16:35:06.525Z,49.75
2022-08-30T16:37:32.848Z,50.05
2022-08-30T16:39:59.357Z,50.17
2022-08-30T16:42:25.704Z,50.17
2022-08-30T16:44:52.513Z,50.38
2022-08-30T16:47:18.540Z,50.24
2022-08-30T16:49:44.858Z,50.48
2022-08-30T16:52:11.283Z,50.31
2022-08-30T16:54:37.665Z,50.29
2022-08-30T16:57:04.062Z,50.24
2022-08-30T16:59:30.434Z,50.51
2022-08-30T17:01:56.885Z,51.00
2022-08-30T17:04:23.230Z,50.90
2022-08-30T17:06:50.065Z,50.99
2022-08-30T17:09:16.047Z,51.39
2022-08-30T17:11:42.411Z,51.51
2022-08-30T17:14:08.781Z,51.94
2022-08-30T17:16:35.184Z,52.36
2022-08-30T17:19:01.534Z,52.29
2022-08-30T17:21:27.913Z,52.65
2022-08-30T17:23:54.285Z,53.47
2022-08-30T17:26:20.654Z,53.67
2022-08-30T17:28:47.142Z,54.00
2022-08-30T17:31:14.899Z,54.83
2022-08-30T17:33:42.975Z,55.45
2022-08-30T17:36:09.360Z,55.59
2022-08-30T17:38:35.746Z,55.94
2022-08-30T17:41:02.131Z,56.18
2022-08-30T17:43:28.520Z,55.88
2022-08-30T17:45:54.927Z,55.88
2022-08-30T17:48:21.292Z,55.60
2022-08-30T17:50:47.682Z,56.00
2022-08-30T17:53:14.057Z,56.16
2022-08-30T17:55:40.442Z,56.38
2022-08-30T17:58:06.843Z,56.73
2022-08-30T18:00:33.209Z,56.62
2022-08-30T18:02:59.627Z,56.81
2022-08-30T18:05:26.034Z,56.99
2022-08-30T18:07:52.431Z,57.05
2022-08-30T18:10:18.795Z,56.89
2022-08-30T18:12:45.292Z,56.82
2022-08-30T18:15:12.650Z,56.52
2022-08-30T18:17:38.073Z,56.89
2022-08-30T18:20:04.476Z,57.00
2022-08-30T18:22:30.866Z,57.32
2022-08-30T18:25:02.141Z,57.50
2022-08-30T18:27:23.915Z,57.69
2022-08-30T18:29:50.034Z,57.75
2022-08-30T18:32:16.423Z,57.67
2022-08-30T18:34:42.865Z,57.90
2022-08-30T18:37:11.534Z,58.10
2022-08-30T18:39:35.633Z,58.25
2022-08-30T18:42:02.005Z,58.31
2022-08-30T18:44:29.233Z,58.31
2022-08-30T18:46:56.420Z,58.62
2022-08-30T18:49:21.165Z,58.64
2022-08-30T18:51:47.482Z,58.46
2022-08-30T18:54:13.884Z,58.53
2022-08-30T18:56:40.370Z,58.58
2022-08-30T18:59:09.497Z,58.77
2022-08-30T19:01:33.225Z,58.76
2022-08-30T19:03:59.526Z,58.62
2022-08-30T19:06:25.928Z,58.50
2022-08-30T19:08:52.337Z,58.61
2022-08-30T19:11:18.725Z,58.69
2022-08-30T19:13:45.091Z,58.89
2022-08-30T19:16:12.218Z,59.03
2022-08-30T19:18:37.960Z,59.31
2022-08-30T19:21:04.473Z,59.20
2022-08-30T19:23:34.222Z,59.10
2022-08-30T19:25:57.161Z,59.04
2022-08-30T19:28:23.528Z,59.37
2022-08-30T19:30:49.945Z,59.15
2022-08-30T19:33:16.335Z,59.04
2022-08-30T19:35:43.553Z,59.14
2022-08-30T19:38:09.151Z,59.20
2022-08-30T19:40:35.529Z,59.32
2022-08-30T19:43:01.893Z,59.45
2022-08-30T19:45:28.263Z,59.62
2022-08-30T19:47:54.633Z,59.79
2022-08-30T19:50:21.071Z,60.09
2022-08-30T19:52:53.298Z,60.11
2022-08-30T19:55:13.852Z,59.93
2022-08-30T19:57:40.242Z,60.09
2022-08-30T20:00:06.709Z,60.02
2022-08-30T20:02:33.094Z,60.05
2022-08-30T20:04:59.461Z,60.12
2022-08-30T20:07:26.243Z,60.24
2022-08-30T20:09:52.277Z,60.93
2022-08-30T20:12:18.675Z,61.07
2022-08-30T20:14:45.208Z,61.24
2022-08-30T20:17:12.129Z,61.47
2022-08-30T20:19:38.069Z,61.31
2022-08-30T20:22:08.048Z,61.37
2022-08-30T20:24:31.014Z,61.35
2022-08-30T20:26:57.262Z,61.49
2022-08-30T20:29:23.626Z,61.68
2022-08-30T20:31:50.031Z,61.69
2022-08-30T20:34:16.467Z,61.74
2022-08-30T20:36:42.852Z,61.81
2022-08-30T20:39:09.331Z,62.30
2022-08-30T20:41:35.692Z,62.01
2022-08-30T20:44:02.096Z,61.73
2022-08-30T20:46:33.410Z,62.09
2022-08-30T20:48:54.884Z,61.73
2022-08-30T20:51:21.291Z,61.75
2022-08-30T20:53:47.728Z,61.49
2022-08-30T20:56:14.108Z,61.54
2022-08-30T20:58:40.595Z,61.48
2022-08-30T21:01:07.002Z,61.48
2022-08-30T21:03:33.357Z,61.55
2022-08-30T21:05:59.742Z,61.73
2022-08-30T21:08:26.224Z,62.11
2022-08-30T21:10:52.599Z,62.27
2022-08-30T21:13:18.963Z,62.16
2022-08-30T21:15:45.347Z,62.48
2022-08-30T21:18:11.726Z,62.38
2022-08-30T21:20:38.182Z,62.16
2022-08-30T21:23:04.559Z,62.07
2022-08-30T21:25:30.946Z,62.18
2022-08-30T21:27:57.378Z,62.21
2022-08-30T21:30:23.743Z,62.37
2022-08-30T21:32:50.161Z,62.37
2022-08-30T21:35:16.527Z,62.49
2022-08-30T21:37:42.939Z,62.55
2022-08-30T21:40:09.367Z,62.75
2022-08-30T21:42:35.671Z,62.94
2022-08-30T21:45:02.106Z,63.07
2022-08-30T21:47:28.461Z,63.04
2022-08-30T21:49:54.866Z,63.20
2022-08-30T21:52:21.299Z,63.18
2022-08-30T21:54:47.666Z,63.50
2022-08-30T21:57:14.062Z,63.49
2022-08-30T21:59:40.498Z,63.52
2022-08-30T22:02:06.883Z,63.27
2022-08-30T22:04:33.264Z,63.09
2022-08-30T22:06:59.648Z,63.11
2022-08-30T22:09:26.129Z,63.06
2022-08-30T22:11:52.495Z,63.22
2022-08-30T22:14:18.866Z,63.42
2022-08-30T22:16:45.310Z,63.67
2022-08-30T22:19:11.654Z,63.78
2022-08-30T22:21:38.039Z,63.58
2022-08-30T22:24:04.402Z,63.53
2022-08-30T22:26:30.786Z,63.63
2022-08-30T22:28:57.154Z,63.76
2022-08-30T22:31:23.586Z,64.17
2022-08-30T22:33:49.943Z,64.19
2022-08-30T22:36:16.323Z,64.19
2022-08-30T22:38:42.810Z,64.15
2022-08-30T22:41:09.269Z,64.27
2022-08-30T22:43:35.644Z,64.50
2022-08-30T22:46:02.068Z,64.71
2022-08-30T22:48:28.374Z,64.91
2022-08-30T22:50:54.760Z,64.98
2022-08-30T22:53:21.120Z,65.00
2022-08-30T22:55:49.915Z,64.98
2022-08-30T22:58:16.285Z,65.09
2022-08-30T23:00:42.895Z,64.98
2022-08-30T23:03:09.193Z,64.92
2022-08-30T23:05:35.554Z,65.00
2022-08-30T23:08:02.436Z,65.31
2022-08-30T23:10:28.857Z,65.71
2022-08-30T23:12:55.236Z,65.86
2022-08-30T23:15:21.599Z,65.87
2022-08-30T23:17:47.974Z,65.94
2022-08-30T23:20:14.376Z,65.98
2022-08-30T23:22:40.739Z,66.24
2022-08-30T23:25:15.819Z,66.30
2022-08-30T23:27:33.523Z,66.22
2022-08-30T23:29:59.906Z,66.08
2022-08-30T23:32:26.270Z,66.02
2022-08-30T23:34:52.716Z,65.83
2022-08-30T23:37:19.080Z,66.02
2022-08-30T23:39:45.467Z,66.53
2022-08-30T23:42:11.913Z,66.62
2022-08-30T23:44:38.345Z,66.70
2022-08-30T23:47:04.738Z,66.52
2022-08-30T23:49:31.096Z,66.72
2022-08-30T23:51:57.494Z,66.49
2022-08-30T23:54:23.974Z,66.36
2022-08-30T23:56:50.343Z,66.05
2022-08-30T23:59:16.795Z,66.08
